Time;durP1;ratioP1;P1;durP2;ratioP2;P2;SDS_P1;SDS_P2;PMS_P1;PMS_P2;Temp;Humidity;BMP_temperature;BMP_pressure;BME280_temperature;BME280_humidity;BME280_pressure;Samples;Min_cycle;Max_cycle;Signal;HPM_P1;HPM_P2
2023/03/25 00:02:15;;;;;;;3.80;0.80;;;12.40;99.90;;;;;;5032482;28;20033;-39
2023/03/25 00:04:41;;;;;;;1.27;0.60;;;12.40;99.90;;;;;;5033193;28;20140;-35
2023/03/25 00:07:06;;;;;;;1.27;0.60;;;12.40;99.90;;;;;;5031394;28;20033;-37
2023/03/25 00:09:32;;;;;;;1.45;0.55;;;12.40;99.90;;;;;;5034286;28;20040;-36
2023/03/25 00:11:58;;;;;;;2.38;0.70;;;12.40;99.90;;;;;;5032740;28;20037;-38
2023/03/25 00:14:26;;;;;;;1.13;0.65;;;12.40;99.90;;;;;;5032334;28;20032;-42
2023/03/25 00:16:52;;;;;;;1.02;0.70;;;12.40;99.90;;;;;;5031601;28;20079;-39
2023/03/25 00:19:20;;;;;;;1.33;0.85;;;12.40;99.90;;;;;;5031737;28;20450;-37
2023/03/25 00:21:49;;;;;;;0.80;0.60;;;12.40;99.90;;;;;;5031632;28;20029;-37
2023/03/25 00:24:16;;;;;;;0.95;0.50;;;12.40;99.90;;;;;;5032382;28;20060;-36
2023/03/25 00:26:47;;;;;;;1.45;0.60;;;12.40;99.90;;;;;;5031791;28;20025;-37
2023/03/25 00:29:14;;;;;;;1.40;0.75;;;12.40;99.90;;;;;;5033562;28;20061;-37
2023/03/25 00:31:41;;;;;;;1.77;0.73;;;12.40;99.90;;;;;;5032214;28;20025;-37
2023/03/25 00:34:07;;;;;;;0.93;0.60;;;12.40;99.90;;;;;;5032012;28;20068;-36
2023/03/25 00:36:37;;;;;;;1.63;0.57;;;12.40;99.90;;;;;;5032343;28;20042;-37
2023/03/25 00:39:07;;;;;;;1.70;0.85;;;12.40;99.90;;;;;;5032144;28;20028;-38
2023/03/25 00:41:35;;;;;;;1.95;0.60;;;12.30;99.90;;;;;;5032291;28;20495;-39
2023/03/25 00:44:02;;;;;;;1.85;0.70;;;12.30;99.90;;;;;;5032666;28;20543;-35
2023/03/25 00:46:30;;;;;;;1.33;0.68;;;12.40;99.90;;;;;;5031442;28;20041;-36
2023/03/25 00:48:57;;;;;;;0.98;0.55;;;12.30;99.90;;;;;;5031684;28;20104;-36
2023/03/25 00:51:24;;;;;;;1.70;0.60;;;12.30;99.90;;;;;;5032290;28;20029;-36
2023/03/25 00:54:01;;;;;;;2.03;0.70;;;12.30;99.90;;;;;;5031968;28;20022;-35
2023/03/25 00:56:28;;;;;;;1.15;0.65;;;12.30;99.90;;;;;;5032209;28;20018;-36
2023/03/25 00:58:55;;;;;;;0.73;0.47;;;12.30;99.90;;;;;;5031072;28;20075;-39
2023/03/25 01:01:25;;;;;;;1.60;0.60;;;12.30;99.90;;;;;;5032051;28;20021;-39
2023/03/25 01:03:58;;;;;;;3.28;0.70;;;12.30;99.90;;;;;;5031342;28;20502;-37
2023/03/25 01:06:31;;;;;;;1.90;0.52;;;12.30;99.90;;;;;;5031895;28;20052;-38
2023/03/25 01:08:58;;;;;;;3.60;0.80;;;12.30;99.90;;;;;;5032357;28;20022;-39
2023/03/25 01:11:29;;;;;;;2.55;0.77;;;12.30;99.90;;;;;;5032604;28;20118;-41
2023/03/25 01:13:56;;;;;;;1.02;0.47;;;12.30;99.90;;;;;;5031096;28;20037;-36
2023/03/25 01:16:22;;;;;;;3.03;0.77;;;12.30;99.90;;;;;;5031823;28;20021;-38
2023/03/25 01:18:48;;;;;;;2.22;0.70;;;12.30;99.90;;;;;;5030800;28;20083;-37
2023/03/25 01:21:14;;;;;;;1.50;0.57;;;12.30;99.90;;;;;;5032319;28;20053;-37
2023/03/25 01:23:40;;;;;;;2.97;0.60;;;12.30;99.90;;;;;;5032707;28;20021;-37
2023/03/25 01:26:06;;;;;;;2.05;0.73;;;12.30;99.90;;;;;;5031549;28;20029;-38
2023/03/25 01:28:31;;;;;;;1.42;0.70;;;12.30;99.90;;;;;;5030677;28;20028;-37
2023/03/25 01:31:02;;;;;;;3.38;0.68;;;12.30;99.90;;;;;;5031926;28;20028;-37
2023/03/25 01:33:27;;;;;;;1.35;0.68;;;12.30;99.90;;;;;;5031985;28;20083;-37
2023/03/25 01:35:53;;;;;;;1.80;0.65;;;12.30;99.90;;;;;;5030193;28;20025;-39
2023/03/25 01:38:19;;;;;;;3.67;0.68;;;12.30;99.90;;;;;;5032625;28;20022;-39
2023/03/25 01:40:49;;;;;;;0.70;0.50;;;12.20;99.90;;;;;;5033394;28;20030;-36
2023/03/25 01:43:14;;;;;;;2.17;0.70;;;12.20;99.90;;;;;;5031779;28;20435;-36
2023/03/25 01:45:40;;;;;;;1.85;0.60;;;12.20;99.90;;;;;;5030470;28;20029;-38
2023/03/25 01:48:18;;;;;;;2.58;0.77;;;12.30;99.90;;;;;;5032258;28;20025;-36
2023/03/25 01:50:52;;;;;;;2.28;0.60;;;12.20;99.90;;;;;;5031587;28;20034;-36
2023/03/25 01:53:17;;;;;;;1.07;0.60;;;12.20;99.90;;;;;;5030750;28;20017;-37
2023/03/25 01:55:44;;;;;;;1.33;0.65;;;12.30;99.90;;;;;;5030736;28;20314;-36
2023/03/25 01:58:14;;;;;;;1.90;0.90;;;12.30;99.90;;;;;;5031984;28;20095;-39
2023/03/25 02:00:42;;;;;;;2.80;0.70;;;12.20;99.90;;;;;;5030668;28;20045;-37
2023/03/25 02:03:10;;;;;;;3.13;0.77;;;12.20;99.90;;;;;;5030443;28;20018;-40
2023/03/25 02:05:51;;;;;;;2.00;0.70;;;12.20;99.90;;;;;;5031282;28;20152;-37
2023/03/25 02:08:17;;;;;;;3.55;0.80;;;12.20;99.90;;;;;;5034456;28;20021;-37
2023/03/25 02:10:45;;;;;;;2.05;0.60;;;12.20;99.90;;;;;;5034485;28;20026;-39
2023/03/25 02:13:13;;;;;;;1.10;0.50;;;12.20;99.90;;;;;;5035257;28;20034;-36
2023/03/25 02:16:13;;;;;;;2.40;0.88;;;12.20;99.90;;;;;;5033881;28;20484;-37
2023/03/25 02:18:50;;;;;;;1.17;0.55;;;12.20;99.90;;;;;;5025663;28;20128;-37
2023/03/25 02:21:52;;;;;;;1.05;0.57;;;12.20;99.90;;;;;;5034111;28;20059;-36
2023/03/25 02:24:35;;;;;;;1.20;0.50;;;12.20;99.90;;;;;;5036024;28;20223;-39
2023/03/25 02:27:40;;;;;;;0.52;0.32;;;12.20;99.90;;;;;;5035016;28;20037;-37
2023/03/25 02:30:40;;;;;;;1.58;0.60;;;12.20;99.90;;;;;;5035190;28;20030;-37
2023/03/25 02:33:11;;;;;;;3.72;0.47;;;12.20;99.90;;;;;;5033835;28;20032;-38
2023/03/25 02:36:29;;;;;;;3.03;0.80;;;12.20;99.90;;;;;;5035058;28;20064;-38
2023/03/25 02:39:07;;;;;;;0.95;0.32;;;12.20;99.90;;;;;;5032568;28;20034;-36
2023/03/25 02:41:40;;;;;;;3.40;0.77;;;12.20;99.90;;;;;;5033713;28;20021;-38
2023/03/25 02:44:36;;;;;;;4.90;1.00;;;12.20;99.90;;;;;;5034773;28;20498;-37
2023/03/25 02:47:06;;;;;;;2.25;0.60;;;12.20;99.90;;;;;;5034576;28;20029;-37
2023/03/25 02:49:40;;;;;;;2.15;0.45;;;12.10;99.90;;;;;;5035276;28;20029;-37
2023/03/25 02:52:40;;;;;;;3.22;0.68;;;12.10;99.90;;;;;;5034791;28;20030;-37
2023/03/25 02:55:09;;;;;;;2.45;0.60;;;12.10;99.90;;;;;;5033681;28;20549;-37
2023/03/25 02:57:39;;;;;;;2.42;0.60;;;12.10;99.90;;;;;;5033492;28;20033;-38
2023/03/25 03:00:14;;;;;;;2.15;0.50;;;12.20;99.90;;;;;;5033819;28;20045;-38
2023/03/25 03:02:49;;;;;;;1.00;0.43;;;12.10;99.90;;;;;;5031778;28;20112;-37
2023/03/25 03:05:25;;;;;;;2.35;0.60;;;12.10;99.90;;;;;;5034263;28;20035;-35
2023/03/25 03:08:02;;;;;;;1.63;0.50;;;12.10;99.90;;;;;;5034289;28;20033;-37
2023/03/25 03:11:04;;;;;;;1.48;0.63;;;12.10;99.90;;;;;;5033976;28;20057;-36
2023/03/25 03:13:56;;;;;;;2.08;0.47;;;12.10;99.90;;;;;;5033516;28;20029;-39
2023/03/25 03:16:47;;;;;;;1.02;0.40;;;12.10;99.90;;;;;;5025535;28;20045;-41
2023/03/25 03:19:22;;;;;;;2.47;0.68;;;12.10;99.90;;;;;;5021650;28;20045;-37
2023/03/25 03:22:24;;;;;;;0.90;0.30;;;12.10;99.90;;;;;;5034342;28;20071;-36
2023/03/25 03:24:53;;;;;;;2.28;0.57;;;12.10;99.90;;;;;;5034047;28;20101;-36
2023/03/25 03:27:58;;;;;;;3.53;0.60;;;12.00;99.90;;;;;;5033420;28;20040;-37
2023/03/25 03:30:38;;;;;;;1.17;0.50;;;12.00;99.90;;;;;;5022095;28;20041;-38
2023/03/25 03:33:32;;;;;;;0.98;0.40;;;12.10;99.90;;;;;;5034473;28;20029;-36
2023/03/25 03:36:03;;;;;;;1.23;0.25;;;12.00;99.90;;;;;;5031344;28;20033;-36
2023/03/25 03:38:40;;;;;;;0.85;0.30;;;12.00;99.90;;;;;;5035048;28;20042;-39
2023/03/25 03:41:09;;;;;;;1.48;0.20;;;12.00;99.90;;;;;;5034457;28;20026;-36
2023/03/25 03:43:41;;;;;;;1.80;0.40;;;12.00;99.90;;;;;;5033461;28;20029;-36
2023/03/25 03:46:14;;;;;;;2.25;0.40;;;12.00;99.90;;;;;;5031617;28;20100;-36
2023/03/25 03:48:49;;;;;;;1.27;0.52;;;12.00;99.90;;;;;;5032164;28;20610;-36
2023/03/25 03:51:20;;;;;;;1.42;0.43;;;12.00;99.90;;;;;;5033831;28;20515;-35
2023/03/25 03:53:59;;;;;;;0.45;0.30;;;12.00;99.90;;;;;;5033199;28;20107;-40
2023/03/25 03:56:31;;;;;;;1.80;0.50;;;12.00;99.90;;;;;;5032730;28;20175;-37
2023/03/25 03:58:58;;;;;;;0.98;0.30;;;11.90;99.90;;;;;;5033799;28;20092;-38
2023/03/25 04:01:36;;;;;;;0.93;0.40;;;11.90;99.90;;;;;;5032990;28;20026;-36
2023/03/25 04:04:09;;;;;;;0.88;0.45;;;12.00;99.90;;;;;;5033322;28;20543;-36
2023/03/25 04:06:40;;;;;;;0.90;0.35;;;11.90;99.90;;;;;;5032481;28;20102;-36
2023/03/25 04:09:17;;;;;;;0.93;0.40;;;11.90;99.90;;;;;;5033045;28;20379;-37
2023/03/25 04:11:53;;;;;;;1.00;0.30;;;11.90;99.90;;;;;;5033381;28;20026;-37
2023/03/25 04:14:18;;;;;;;1.13;0.50;;;12.00;99.90;;;;;;5032309;28;20399;-37
2023/03/25 04:16:44;;;;;;;1.42;0.35;;;12.00;99.90;;;;;;5032366;28;20028;-36
2023/03/25 04:19:17;;;;;;;0.73;0.30;;;11.90;99.90;;;;;;5032659;28;20096;-35
2023/03/25 04:21:44;;;;;;;0.82;0.30;;;11.90;99.90;;;;;;5032857;28;20033;-37
2023/03/25 04:24:10;;;;;;;1.75;0.38;;;11.90;99.90;;;;;;5034035;28;20045;-36
2023/03/25 04:26:37;;;;;;;1.85;0.55;;;11.90;99.90;;;;;;5031917;28;20561;-38
2023/03/25 04:29:04;;;;;;;1.15;0.47;;;11.90;99.90;;;;;;5031567;28;20032;-37
2023/03/25 04:31:30;;;;;;;1.95;0.40;;;11.90;99.90;;;;;;5032602;28;20099;-37
2023/03/25 04:33:59;;;;;;;2.70;0.63;;;11.90;99.90;;;;;;5032418;28;20543;-37
2023/03/25 04:36:32;;;;;;;4.13;1.17;;;11.90;99.90;;;;;;5031241;28;20039;-39
2023/03/25 04:38:58;;;;;;;1.33;0.40;;;11.90;99.90;;;;;;5034100;28;20116;-37
2023/03/25 04:41:25;;;;;;;1.58;0.47;;;11.90;99.90;;;;;;5031261;28;20108;-38
2023/03/25 04:43:50;;;;;;;1.75;0.50;;;11.90;99.90;;;;;;5032696;28;20025;-35
2023/03/25 04:46:17;;;;;;;0.82;0.35;;;11.90;99.90;;;;;;5031526;28;20075;-37
2023/03/25 04:48:44;;;;;;;1.42;0.40;;;11.90;99.90;;;;;;5032601;28;20029;-35
2023/03/25 04:51:14;;;;;;;1.13;0.55;;;11.90;99.90;;;;;;5033607;28;20026;-37
2023/03/25 04:53:40;;;;;;;1.23;0.45;;;11.80;99.90;;;;;;5032544;28;20030;-35
2023/03/25 04:56:14;;;;;;;1.23;0.30;;;11.80;99.90;;;;;;5031779;28;20491;-40
2023/03/25 04:58:41;;;;;;;2.05;0.50;;;11.80;99.90;;;;;;5032854;28;20479;-38
2023/03/25 05:01:10;;;;;;;3.55;0.60;;;11.80;99.90;;;;;;5031385;28;20041;-40
2023/03/25 05:03:38;;;;;;;2.15;0.50;;;11.80;99.90;;;;;;5032303;28;20030;-37
2023/03/25 05:06:05;;;;;;;3.10;0.55;;;11.80;99.90;;;;;;5031466;28;20044;-36
2023/03/25 05:08:31;;;;;;;2.38;0.50;;;11.80;99.90;;;;;;5031728;28;20395;-40
2023/03/25 05:10:56;;;;;;;4.38;0.68;;;11.80;99.90;;;;;;5033602;28;20022;-39
2023/03/25 05:13:22;;;;;;;1.77;0.40;;;11.80;99.90;;;;;;5032874;28;20033;-36
2023/03/25 05:15:48;;;;;;;1.65;0.60;;;11.80;99.90;;;;;;5033220;28;20670;-36
2023/03/25 05:18:15;;;;;;;5.10;0.68;;;11.80;99.90;;;;;;5031895;28;20017;-36
2023/03/25 05:20:44;;;;;;;2.10;0.40;;;11.80;99.90;;;;;;5032534;28;20380;-38
2023/03/25 05:23:16;;;;;;;2.80;0.60;;;11.80;99.90;;;;;;5031400;28;20022;-40
2023/03/25 05:25:42;;;;;;;3.03;0.60;;;11.80;99.90;;;;;;5031170;28;20032;-38
2023/03/25 05:28:12;;;;;;;2.00;0.80;;;11.80;99.90;;;;;;5031818;28;20135;-37
2023/03/25 05:30:44;;;;;;;1.70;0.60;;;11.80;99.90;;;;;;5032051;28;20427;-37
2023/03/25 05:33:11;;;;;;;2.35;0.80;;;11.80;99.90;;;;;;5033137;28;20108;-38
2023/03/25 05:35:37;;;;;;;2.97;0.63;;;11.80;99.90;;;;;;5031534;28;20475;-37
2023/03/25 05:38:11;;;;;;;2.95;0.63;;;11.80;99.90;;;;;;5032212;28;20479;-35
2023/03/25 05:40:37;;;;;;;1.73;0.60;;;11.70;99.90;;;;;;5030858;28;20075;-36
2023/03/25 05:43:05;;;;;;;2.15;0.60;;;11.70;99.90;;;;;;5035509;28;20483;-39
2023/03/25 05:45:31;;;;;;;2.75;0.60;;;11.70;99.90;;;;;;5036579;28;20040;-37
2023/03/25 05:47:59;;;;;;;2.40;0.50;;;11.70;99.90;;;;;;5035085;28;20479;-39
2023/03/25 05:50:26;;;;;;;1.75;0.60;;;11.80;99.90;;;;;;5035658;28;20029;-36
2023/03/25 05:52:52;;;;;;;1.63;0.55;;;11.80;99.90;;;;;;5035317;28;20060;-36
2023/03/25 05:55:20;;;;;;;1.60;0.57;;;11.80;99.90;;;;;;5035590;28;20088;-36
2023/03/25 05:57:46;;;;;;;2.50;0.63;;;11.70;99.90;;;;;;5034226;28;20476;-36
2023/03/25 06:00:14;;;;;;;4.78;0.80;;;11.80;99.90;;;;;;5035222;28;20045;-37
2023/03/25 06:02:41;;;;;;;2.75;1.00;;;11.70;99.90;;;;;;5035443;28;20017;-37
2023/03/25 06:05:08;;;;;;;1.75;0.65;;;11.80;99.90;;;;;;5035085;28;20475;-39
2023/03/25 06:07:38;;;;;;;1.40;0.60;;;11.70;99.90;;;;;;5033758;28;20029;-38
2023/03/25 06:10:06;;;;;;;2.85;0.70;;;11.70;99.90;;;;;;5036068;28;20523;-39
2023/03/25 06:12:37;;;;;;;4.18;0.50;;;11.70;99.90;;;;;;5035996;28;20113;-39
2023/03/25 06:15:04;;;;;;;2.13;0.77;;;11.70;99.90;;;;;;5034282;28;20025;-36
2023/03/25 06:17:32;;;;;;;2.25;0.68;;;11.70;99.90;;;;;;5033663;28;20025;-35
2023/03/25 06:19:59;;;;;;;2.45;0.60;;;11.70;99.90;;;;;;5034959;28;20361;-36
2023/03/25 06:22:25;;;;;;;1.52;0.70;;;11.70;99.90;;;;;;5034456;28;20096;-35
2023/03/25 06:24:51;;;;;;;3.20;0.70;;;11.70;99.90;;;;;;5034974;28;20460;-36
2023/03/25 06:27:18;;;;;;;2.13;0.50;;;11.70;99.90;;;;;;5034599;28;20029;-37
2023/03/25 06:29:46;;;;;;;2.05;0.55;;;11.70;99.90;;;;;;5035042;28;20472;-37
2023/03/25 06:32:13;;;;;;;3.28;0.70;;;11.70;99.90;;;;;;5035642;28;20030;-35
2023/03/25 06:34:41;;;;;;;2.78;0.60;;;11.70;99.90;;;;;;5035109;28;20030;-37
2023/03/25 06:37:07;;;;;;;2.53;0.70;;;11.70;99.90;;;;;;5034597;28;20112;-36
2023/03/25 06:39:36;;;;;;;2.97;0.60;;;11.70;99.90;;;;;;5035489;28;20043;-36
2023/03/25 06:42:03;;;;;;;2.90;0.60;;;11.70;99.90;;;;;;5033282;28;20101;-39
2023/03/25 06:44:29;;;;;;;1.85;0.65;;;11.70;99.90;;;;;;5032982;28;20028;-36
2023/03/25 06:46:54;;;;;;;2.63;0.55;;;11.70;99.90;;;;;;5034078;28;20025;-36
2023/03/25 06:49:20;;;;;;;1.73;0.57;;;11.70;99.90;;;;;;5034841;28;20044;-36
2023/03/25 06:51:46;;;;;;;2.60;0.85;;;11.70;99.90;;;;;;5035193;28;20036;-35
2023/03/25 06:54:12;;;;;;;3.03;0.70;;;11.70;99.90;;;;;;5034458;28;20075;-35
2023/03/25 06:56:37;;;;;;;3.05;0.77;;;11.70;99.90;;;;;;5032421;28;20125;-35
2023/03/25 06:59:04;;;;;;;2.33;0.80;;;11.70;99.90;;;;;;5034293;28;20077;-36
2023/03/25 07:01:30;;;;;;;2.40;0.73;;;11.70;99.90;;;;;;5033540;28;20030;-36
2023/03/25 07:03:55;;;;;;;5.28;0.70;;;11.80;99.90;;;;;;5034922;28;20092;-35
2023/03/25 07:06:22;;;;;;;1.83;0.55;;;11.80;99.90;;;;;;5033654;28;20454;-37
2023/03/25 07:08:49;;;;;;;2.50;0.60;;;11.70;99.90;;;;;;5034507;28;20517;-37
2023/03/25 07:11:18;;;;;;;1.83;0.60;;;11.70;99.90;;;;;;5033210;28;20033;-40
2023/03/25 07:13:44;;;;;;;3.35;0.63;;;11.70;99.90;;;;;;5032920;28;20056;-38
2023/03/25 07:16:10;;;;;;;1.58;0.60;;;11.80;99.90;;;;;;5032007;28;20068;-37
2023/03/25 07:18:36;;;;;;;3.53;0.90;;;11.80;99.90;;;;;;5032830;28;20100;-37
2023/03/25 07:21:02;;;;;;;1.70;0.50;;;11.80;99.90;;;;;;5032805;28;20438;-36
2023/03/25 07:23:27;;;;;;;1.27;0.50;;;11.80;99.90;;;;;;5033957;28;20014;-37
2023/03/25 07:25:55;;;;;;;1.42;0.50;;;11.80;99.90;;;;;;5032876;28;20037;-35
2023/03/25 07:28:21;;;;;;;2.75;0.70;;;11.80;99.90;;;;;;5032217;28;20024;-35
2023/03/25 07:30:47;;;;;;;2.53;0.60;;;11.80;99.90;;;;;;5034055;28;20022;-35
2023/03/25 07:33:12;;;;;;;1.67;0.52;;;11.80;99.90;;;;;;5032442;28;20021;-36
2023/03/25 07:35:38;;;;;;;1.20;0.43;;;11.80;99.90;;;;;;5032572;28;20037;-38
2023/03/25 07:38:04;;;;;;;0.75;0.40;;;11.80;99.90;;;;;;5031927;28;20116;-35
2023/03/25 07:40:29;;;;;;;0.88;0.50;;;11.80;99.90;;;;;;5031047;28;20032;-35
2023/03/25 07:42:55;;;;;;;2.60;0.70;;;11.80;99.90;;;;;;5034273;28;20437;-39
2023/03/25 07:45:21;;;;;;;2.38;0.50;;;11.80;99.90;;;;;;5033569;28;20488;-37
2023/03/25 07:47:49;;;;;;;3.60;0.50;;;11.80;99.90;;;;;;5031798;28;20039;-37
2023/03/25 07:50:19;;;;;;;1.55;0.60;;;11.80;99.90;;;;;;5032936;28;20179;-36
2023/03/25 07:52:45;;;;;;;1.15;0.43;;;11.80;99.90;;;;;;5033022;28;20028;-39
2023/03/25 07:55:11;;;;;;;0.70;0.32;;;11.80;99.90;;;;;;5032444;28;20041;-37
2023/03/25 07:57:37;;;;;;;1.70;0.50;;;11.90;99.90;;;;;;5031389;28;20033;-38
2023/03/25 08:00:04;;;;;;;1.88;0.50;;;11.90;99.90;;;;;;5033011;28;20044;-45
2023/03/25 08:02:30;;;;;;;1.85;0.70;;;11.90;99.90;;;;;;5033693;28;20029;-36
2023/03/25 08:04:56;;;;;;;1.00;0.43;;;11.90;99.90;;;;;;5032930;28;20080;-36
2023/03/25 08:07:22;;;;;;;1.80;0.60;;;11.90;99.90;;;;;;5032994;28;20057;-39
2023/03/25 08:09:48;;;;;;;0.80;0.30;;;12.00;99.90;;;;;;5032923;28;20030;-35
2023/03/25 08:12:13;;;;;;;1.75;0.60;;;12.00;99.90;;;;;;5033040;28;20083;-36
2023/03/25 08:14:39;;;;;;;1.02;0.47;;;12.00;99.90;;;;;;5031988;28;20120;-35
2023/03/25 08:17:05;;;;;;;0.77;0.47;;;12.00;99.90;;;;;;5031368;28;20096;-36
2023/03/25 08:19:32;;;;;;;0.63;0.40;;;12.00;99.90;;;;;;5034218;28;20021;-36
2023/03/25 08:21:57;;;;;;;2.25;0.60;;;12.00;99.90;;;;;;5032667;28;20132;-38
2023/03/25 08:24:25;;;;;;;2.40;0.80;;;12.00;99.90;;;;;;5032281;28;20116;-37
2023/03/25 08:26:52;;;;;;;1.60;0.80;;;12.00;99.90;;;;;;5032722;28;20445;-36
2023/03/25 08:29:19;;;;;;;1.35;0.60;;;12.00;99.90;;;;;;5031903;28;20099;-42
2023/03/25 08:31:45;;;;;;;0.73;0.35;;;12.10;99.90;;;;;;5033412;28;20049;-38
2023/03/25 08:34:12;;;;;;;1.42;0.60;;;12.00;99.90;;;;;;5032963;28;20471;-35
2023/03/25 08:36:38;;;;;;;1.17;0.57;;;12.00;99.90;;;;;;5032658;28;20099;-37
2023/03/25 08:39:10;;;;;;;1.23;0.60;;;12.00;99.90;;;;;;5031685;28;20025;-36
2023/03/25 08:41:39;;;;;;;1.45;0.68;;;12.00;99.90;;;;;;5031144;28;20106;-35
2023/03/25 08:44:06;;;;;;;1.60;0.57;;;12.00;99.90;;;;;;5032466;28;20056;-39
2023/03/25 08:46:31;;;;;;;1.58;0.60;;;12.00;99.90;;;;;;5030888;28;20021;-39
2023/03/25 08:48:57;;;;;;;2.95;0.68;;;12.00;99.90;;;;;;5031185;28;20032;-37
2023/03/25 08:51:23;;;;;;;0.50;0.30;;;12.00;99.90;;;;;;5031807;28;20111;-37
2023/03/25 08:53:49;;;;;;;3.00;0.47;;;12.00;99.90;;;;;;5032704;28;20036;-36
2023/03/25 08:56:15;;;;;;;2.50;1.48;;;12.00;99.90;;;;;;5031501;28;20034;-37
2023/03/25 08:58:40;;;;;;;3.88;1.45;;;12.00;99.90;;;;;;5031898;28;20022;-35
2023/03/25 09:01:06;;;;;;;1.73;0.85;;;12.00;99.90;;;;;;5031656;28;20373;-39
2023/03/25 09:03:32;;;;;;;1.98;0.82;;;12.00;99.90;;;;;;5032475;28;20014;-35
2023/03/25 09:06:03;;;;;;;1.17;0.60;;;12.00;99.90;;;;;;5031083;28;20030;-38
2023/03/25 09:08:28;;;;;;;1.10;0.50;;;12.00;99.90;;;;;;5032817;28;20028;-37
2023/03/25 09:10:55;;;;;;;2.00;0.90;;;12.00;99.90;;;;;;5031866;28;20108;-36
2023/03/25 09:13:21;;;;;;;2.30;0.98;;;12.00;99.90;;;;;;5032403;28;20018;-36
2023/03/25 09:15:46;;;;;;;2.53;0.77;;;12.00;99.90;;;;;;5033142;28;20520;-39
2023/03/25 09:18:12;;;;;;;1.10;0.80;;;12.00;99.90;;;;;;5036282;28;20545;-37
2023/03/25 09:20:38;;;;;;;1.83;0.70;;;12.00;99.90;;;;;;5035314;28;20025;-36
2023/03/25 09:23:04;;;;;;;1.00;0.68;;;11.90;99.90;;;;;;5034970;28;20079;-36
2023/03/25 09:25:29;;;;;;;2.35;0.60;;;12.00;99.90;;;;;;5035932;28;20251;-36
2023/03/25 09:27:55;;;;;;;1.73;0.82;;;12.00;99.90;;;;;;5034698;28;20486;-37
2023/03/25 09:30:21;;;;;;;1.88;0.70;;;12.00;99.90;;;;;;5034725;28;20029;-36
2023/03/25 09:32:46;;;;;;;1.23;0.60;;;12.00;99.90;;;;;;5034621;28;20028;-38
2023/03/25 09:35:12;;;;;;;1.15;0.68;;;11.90;99.90;;;;;;5034569;28;20025;-38
2023/03/25 09:37:37;;;;;;;1.33;0.68;;;12.00;99.90;;;;;;5034038;28;20032;-36
2023/03/25 09:40:04;;;;;;;1.33;0.60;;;11.90;99.90;;;;;;5034725;28;20053;-39
2023/03/25 09:42:36;;;;;;;1.30;0.60;;;12.00;99.90;;;;;;5035679;28;20018;-37
2023/03/25 09:45:32;;;;;;;1.25;0.77;;;12.00;99.90;;;;;;5035595;28;20022;-36
2023/03/25 09:48:09;;;;;;;1.17;0.57;;;12.00;99.90;;;;;;5036221;28;20484;-36
2023/03/25 09:50:36;;;;;;;0.70;0.50;;;12.00;99.90;;;;;;5035596;28;20030;-37
2023/03/25 09:53:29;;;;;;;2.22;0.80;;;12.00;99.90;;;;;;5034183;28;20033;-38
2023/03/25 09:55:55;;;;;;;1.08;0.60;;;12.00;99.90;;;;;;5033667;28;20041;-36
2023/03/25 09:58:21;;;;;;;1.77;0.70;;;12.00;99.90;;;;;;5035664;28;20208;-36
2023/03/25 10:00:52;;;;;;;1.65;0.70;;;12.00;99.90;;;;;;5034284;28;20499;-37
2023/03/25 10:03:25;;;;;;;1.50;0.70;;;12.00;99.90;;;;;;5035496;28;20032;-40
2023/03/25 10:06:18;;;;;;;1.00;0.52;;;12.00;99.90;;;;;;5034085;28;20032;-35
2023/03/25 10:08:55;;;;;;;2.90;0.90;;;12.00;99.90;;;;;;5031817;28;20083;-37
2023/03/25 10:11:21;;;;;;;1.17;0.55;;;12.10;99.90;;;;;;5034077;28;20025;-35
2023/03/25 10:14:14;;;;;;;0.95;0.60;;;12.10;99.90;;;;;;5033855;28;20076;-38
2023/03/25 10:16:51;;;;;;;1.02;0.47;;;12.10;99.90;;;;;;5033680;28;20080;-39
2023/03/25 10:19:37;;;;;;;1.13;0.68;;;12.10;99.90;;;;;;5034587;28;20028;-37
2023/03/25 10:22:08;;;;;;;1.15;0.68;;;12.10;99.90;;;;;;5035472;28;20039;-39
2023/03/25 10:24:39;;;;;;;0.90;0.50;;;12.10;99.90;;;;;;5034537;28;20032;-38
2023/03/25 10:27:14;;;;;;;0.93;0.50;;;12.10;99.90;;;;;;5032552;28;20513;-37
2023/03/25 10:29:46;;;;;;;1.70;0.52;;;12.10;99.90;;;;;;5033680;28;20164;-36
2023/03/25 10:32:17;;;;;;;1.40;0.60;;;12.10;99.90;;;;;;5034376;28;20017;-39
2023/03/25 10:34:51;;;;;;;1.55;0.70;;;12.10;99.90;;;;;;5034192;28;20029;-39
2023/03/25 10:37:27;;;;;;;1.65;0.73;;;12.10;99.90;;;;;;5032910;28;20026;-37
2023/03/25 10:39:57;;;;;;;2.00;0.68;;;12.10;99.90;;;;;;5033551;28;20033;-39
2023/03/25 10:42:33;;;;;;;1.35;0.70;;;12.10;99.90;;;;;;5034306;28;20017;-35
2023/03/25 10:44:59;;;;;;;1.15;0.70;;;12.20;99.90;;;;;;5033325;28;20029;-37
2023/03/25 10:47:29;;;;;;;1.05;0.60;;;12.20;99.90;;;;;;5033159;28;20148;-37
2023/03/25 10:49:58;;;;;;;1.92;0.73;;;12.20;99.90;;;;;;5033199;28;20029;-39
2023/03/25 10:52:24;;;;;;;1.92;0.80;;;12.20;99.90;;;;;;5033547;28;20446;-42
2023/03/25 10:54:55;;;;;;;1.00;0.65;;;12.20;99.90;;;;;;5033538;28;20036;-37
2023/03/25 10:57:27;;;;;;;1.13;0.63;;;12.20;99.90;;;;;;5033653;28;20052;-39
2023/03/25 11:00:18;;;;;;;1.25;0.65;;;12.20;99.90;;;;;;5033018;28;20071;-36
2023/03/25 11:02:45;;;;;;;1.33;0.80;;;12.20;99.90;;;;;;5033178;28;20025;-41
2023/03/25 11:05:15;;;;;;;3.28;0.77;;;12.30;99.90;;;;;;5033700;28;20040;-36
2023/03/25 11:07:45;;;;;;;1.35;0.77;;;12.30;99.90;;;;;;5034069;28;20028;-35
2023/03/25 11:10:24;;;;;;;2.42;0.80;;;12.30;99.90;;;;;;5033460;28;20025;-37
2023/03/25 11:12:51;;;;;;;1.23;0.50;;;12.30;99.90;;;;;;5034105;28;20040;-35
2023/03/25 11:15:28;;;;;;;2.35;0.70;;;12.20;99.90;;;;;;5034468;28;20084;-39
2023/03/25 11:18:12;;;;;;;1.90;0.60;;;12.20;99.90;;;;;;5034255;28;20049;-36
2023/03/25 11:20:44;;;;;;;1.65;0.60;;;12.30;99.90;;;;;;5034172;28;20025;-36
2023/03/25 11:23:31;;;;;;;1.60;0.50;;;12.30;99.90;;;;;;5034083;28;20104;-39
2023/03/25 11:26:13;;;;;;;1.90;0.70;;;12.20;99.90;;;;;;5032640;28;20359;-38
2023/03/25 11:28:44;;;;;;;1.83;0.77;;;12.30;99.90;;;;;;5032736;28;20091;-36
2023/03/25 11:31:16;;;;;;;1.25;0.47;;;12.30;99.90;;;;;;5033956;28;20017;-39
2023/03/25 11:33:44;;;;;;;2.17;0.70;;;12.30;99.90;;;;;;5032421;28;20024;-35
2023/03/25 11:36:23;;;;;;;1.17;0.60;;;12.30;99.90;;;;;;5031816;28;20392;-36
2023/03/25 11:38:57;;;;;;;2.67;0.75;;;12.30;99.90;;;;;;5032266;28;20400;-36
2023/03/25 11:41:27;;;;;;;1.15;0.50;;;12.30;99.90;;;;;;5032722;28;20025;-37
2023/03/25 11:43:53;;;;;;;4.13;0.40;;;12.30;99.90;;;;;;5032116;28;20057;-37
2023/03/25 11:46:20;;;;;;;1.52;0.38;;;12.30;99.90;;;;;;5032164;28;20139;-37
2023/03/25 11:48:46;;;;;;;0.95;0.40;;;12.30;99.90;;;;;;5033109;28;20029;-37
2023/03/25 11:51:20;;;;;;;1.25;0.43;;;12.30;99.90;;;;;;5033193;28;20041;-39
2023/03/25 11:53:58;;;;;;;1.52;0.47;;;12.30;99.90;;;;;;5032204;28;20025;-36
2023/03/25 11:56:31;;;;;;;0.90;0.40;;;12.40;99.90;;;;;;5031595;28;20030;-35
2023/03/25 11:59:00;;;;;;;1.50;0.55;;;12.40;99.90;;;;;;5032583;28;20087;-35
2023/03/25 12:01:35;;;;;;;1.05;0.50;;;12.40;99.90;;;;;;5031935;28;20025;-35
2023/03/25 12:04:11;;;;;;;1.33;0.40;;;12.40;99.90;;;;;;5032059;28;20024;-36
2023/03/25 12:06:50;;;;;;;1.38;0.47;;;12.40;99.90;;;;;;5032223;28;20075;-36
2023/03/25 12:09:16;;;;;;;1.90;0.70;;;12.40;99.90;;;;;;5032511;28;20053;-37
2023/03/25 12:11:54;;;;;;;1.75;0.60;;;12.40;99.90;;;;;;5031999;28;20170;-36
2023/03/25 12:14:40;;;;;;;1.23;0.60;;;12.40;99.90;;;;;;5031654;28;20029;-36
2023/03/25 12:17:27;;;;;;;1.38;0.50;;;12.40;99.90;;;;;;5031126;28;20049;-39
2023/03/25 12:20:22;;;;;;;1.48;0.50;;;12.40;99.90;;;;;;5031675;28;20021;-38
2023/03/25 12:23:05;;;;;;;2.03;0.60;;;12.40;99.90;;;;;;5031841;28;20025;-37
2023/03/25 12:25:52;;;;;;;1.92;0.52;;;12.50;99.90;;;;;;5031658;28;20068;-36
2023/03/25 12:28:50;;;;;;;0.85;0.45;;;12.50;99.90;;;;;;5031352;28;20017;-37
2023/03/25 12:31:44;;;;;;;1.10;0.40;;;12.50;99.90;;;;;;5029222;28;20521;-36
2023/03/25 12:34:26;;;;;;;1.27;0.60;;;12.50;99.90;;;;;;5031391;28;20053;-37
2023/03/25 12:37:28;;;;;;;2.67;0.50;;;12.50;99.90;;;;;;5030829;28;20033;-36
2023/03/25 12:40:18;;;;;;;6.38;0.82;;;12.50;99.90;;;;;;5031343;28;20032;-38
2023/03/25 12:43:08;;;;;;;1.60;0.50;;;12.50;99.90;;;;;;5031549;28;20430;-38
2023/03/25 12:45:36;;;;;;;1.92;0.50;;;12.50;99.90;;;;;;5031401;28;20032;-37
2023/03/25 12:48:05;;;;;;;2.17;0.50;;;12.50;99.90;;;;;;5030691;28;20030;-36
2023/03/25 12:51:04;;;;;;;0.82;0.43;;;12.50;99.90;;;;;;5031146;28;20032;-36
2023/03/25 12:53:53;;;;;;;0.35;0.22;;;12.50;99.90;;;;;;5031793;28;20052;-36
2023/03/25 12:56:45;;;;;;;1.75;0.50;;;12.60;99.90;;;;;;5030935;28;20029;-35
2023/03/25 12:59:21;;;;;;;1.73;0.57;;;12.50;99.90;;;;;;5031068;28;20474;-35
2023/03/25 13:02:11;;;;;;;1.88;0.50;;;12.50;99.90;;;;;;5031152;28;20026;-40
2023/03/25 13:04:42;;;;;;;1.77;0.60;;;12.50;99.90;;;;;;5031037;28;20025;-35
2023/03/25 13:07:16;;;;;;;1.90;0.60;;;12.50;99.90;;;;;;5030500;28;20030;-39
2023/03/25 13:10:03;;;;;;;1.38;0.50;;;12.50;99.90;;;;;;5031063;28;20037;-36
2023/03/25 13:12:56;;;;;;;2.20;0.63;;;12.50;99.90;;;;;;5030885;28;20087;-38